sensor_id;sensor_type;location;lat;lon;timestamp;temperature;humidity
3023;DHT22;1521;53.584;9.938;2024-03-23T00:53:59;6.60;99.90
3023;DHT22;1521;53.584;9.938;2024-03-23T00:56:25;6.50;99.90
3023;DHT22;1521;53.584;9.938;2024-03-23T00:58:50;6.50;99.90
3023;DHT22;1521;53.584;9.938;2024-03-23T01:01:16;6.50;99.90
3023;DHT22;1521;53.584;9.938;2024-03-23T01:03:41;6.40;99.90
3023;DHT22;1521;53.584;9.938;2024-03-23T01:06:07;6.40;1.00
3023;DHT22;1521;53.584;9.938;2024-03-23T01:08:32;6.40;1.00
3023;DHT22;1521;53.584;9.938;2024-03-23T01:11:01;6.40;1.00
3023;DHT22;1521;53.584;9.938;2024-03-23T01:13:28;6.30;33.60
3023;DHT22;1521;53.584;9.938;2024-03-23T01:15:55;6.30;99.90
3023;DHT22;1521;53.584;9.938;2024-03-23T01:18:21;6.30;99.90
3023;DHT22;1521;53.584;9.938;2024-03-23T01:20:47;6.30;99.90
3023;DHT22;1521;53.584;9.938;2024-03-23T01:23:13;6.30;1.00
3023;DHT22;1521;53.584;9.938;2024-03-23T01:25:39;6.20;8.70
3023;DHT22;1521;53.584;9.938;2024-03-23T01:28:05;6.20;99.60
3023;DHT22;1521;53.584;9.938;2024-03-23T01:30:32;6.20;99.90
3023;DHT22;1521;53.584;9.938;2024-03-23T01:32:57;6.20;99.90
3023;DHT22;1521;53.584;9.938;2024-03-23T01:35:23;6.20;99.90
3023;DHT22;1521;53.584;9.938;2024-03-23T01:37:48;6.20;99.90
3023;DHT22;1521;53.584;9.938;2024-03-23T01:40:15;6.20;99.90
3023;DHT22;1521;53.584;9.938;2024-03-23T01:42:41;6.10;1.00
3023;DHT22;1521;53.584;9.938;2024-03-23T01:45:08;6.10;1.00
3023;DHT22;1521;53.584;9.938;2024-03-23T01:47:34;6.10;99.90
3023;DHT22;1521;53.584;9.938;2024-03-23T01:49:59;6.10;99.90
3023;DHT22;1521;53.584;9.938;2024-03-23T01:52:29;6.10;99.90
3023;DHT22;1521;53.584;9.938;2024-03-23T01:54:55;6.10;99.90
3023;DHT22;1521;53.584;9.938;2024-03-23T01:57:21;6.10;90.30
3023;DHT22;1521;53.584;9.938;2024-03-23T01:59:47;6.10;1.00
3023;DHT22;1521;53.584;9.938;2024-03-23T02:02:13;6.10;1.00
3023;DHT22;1521;53.584;9.938;2024-03-23T02:04:39;6.10;99.90
3023;DHT22;1521;53.584;9.938;2024-03-23T02:07:06;6.10;1.00
3023;DHT22;1521;53.584;9.938;2024-03-23T02:09:32;6.00;1.00
3023;DHT22;1521;53.584;9.938;2024-03-23T02:11:58;6.00;99.90
3023;DHT22;1521;53.584;9.938;2024-03-23T02:14:24;6.00;1.00
3023;DHT22;1521;53.584;9.938;2024-03-23T02:16:49;6.00;99.90
3023;DHT22;1521;53.584;9.938;2024-03-23T02:19:15;6.00;99.90
3023;DHT22;1521;53.584;9.938;2024-03-23T02:21:40;6.00;99.90
3023;DHT22;1521;53.584;9.938;2024-03-23T02:24:06;6.00;99.90
3023;DHT22;1521;53.584;9.938;2024-03-23T02:26:31;6.00;1.00
3023;DHT22;1521;53.584;9.938;2024-03-23T02:28:57;5.90;1.00
3023;DHT22;1521;53.584;9.938;2024-03-23T02:31:22;5.90;1.00
3023;DHT22;1521;53.584;9.938;2024-03-23T02:33:48;5.90;75.80
3023;DHT22;1521;53.584;9.938;2024-03-23T02:36:13;5.80;99.90
3023;DHT22;1521;53.584;9.938;2024-03-23T02:38:39;5.90;1.00
3023;DHT22;1521;53.584;9.938;2024-03-23T02:41:05;5.80;1.00
3023;DHT22;1521;53.584;9.938;2024-03-23T02:43:30;5.80;99.90
3023;DHT22;1521;53.584;9.938;2024-03-23T02:45:56;5.80;46.00
3023;DHT22;1521;53.584;9.938;2024-03-23T02:48:22;5.80;99.90
3023;DHT22;1521;53.584;9.938;2024-03-23T02:50:48;5.80;1.00
3023;DHT22;1521;53.584;9.938;2024-03-23T02:53:13;5.80;99.90
3023;DHT22;1521;53.584;9.938;2024-03-23T02:55:39;5.70;99.90
3023;DHT22;1521;53.584;9.938;2024-03-23T02:58:04;5.70;99.90
3023;DHT22;1521;53.584;9.938;2024-03-23T03:00:30;5.70;99.90
3023;DHT22;1521;53.584;9.938;2024-03-23T03:02:55;5.70;99.90
3023;DHT22;1521;53.584;9.938;2024-03-23T03:05:21;5.80;99.90
3023;DHT22;1521;53.584;9.938;2024-03-23T03:07:47;5.80;99.90
3023;DHT22;1521;53.584;9.938;2024-03-23T03:10:12;5.80;99.90
3023;DHT22;1521;53.584;9.938;2024-03-23T03:12:38;5.80;99.90
3023;DHT22;1521;53.584;9.938;2024-03-23T03:15:04;5.70;1.00
3023;DHT22;1521;53.584;9.938;2024-03-23T03:17:30;5.70;1.00
3023;DHT22;1521;53.584;9.938;2024-03-23T03:19:56;5.70;99.90
3023;DHT22;1521;53.584;9.938;2024-03-23T03:22:24;5.70;99.90
3023;DHT22;1521;53.584;9.938;2024-03-23T03:24:50;5.70;99.90
3023;DHT22;1521;53.584;9.938;2024-03-23T03:27:15;5.70;1.00
3023;DHT22;1521;53.584;9.938;2024-03-23T03:29:41;5.70;1.00
3023;DHT22;1521;53.584;9.938;2024-03-23T03:32:07;5.70;1.00
3023;DHT22;1521;53.584;9.938;2024-03-23T03:34:32;5.70;1.00
3023;DHT22;1521;53.584;9.938;2024-03-23T03:36:58;5.70;1.00
3023;DHT22;1521;53.584;9.938;2024-03-23T03:39:24;5.70;1.00
3023;DHT22;1521;53.584;9.938;2024-03-23T03:41:50;5.70;1.00
3023;DHT22;1521;53.584;9.938;2024-03-23T03:44:16;5.70;1.00
3023;DHT22;1521;53.584;9.938;2024-03-23T03:46:42;5.70;1.00
3023;DHT22;1521;53.584;9.938;2024-03-23T03:49:07;5.70;1.00
3023;DHT22;1521;53.584;9.938;2024-03-23T03:51:33;5.70;1.00
3023;DHT22;1521;53.584;9.938;2024-03-23T03:53:59;5.70;1.00
3023;DHT22;1521;53.584;9.938;2024-03-23T03:56:24;5.70;1.00
3023;DHT22;1521;53.584;9.938;2024-03-23T03:58:50;5.70;1.00
3023;DHT22;1521;53.584;9.938;2024-03-23T04:01:15;5.60;1.00
3023;DHT22;1521;53.584;9.938;2024-03-23T04:03:43;5.60;1.00
3023;DHT22;1521;53.584;9.938;2024-03-23T04:06:09;5.50;1.00
3023;DHT22;1521;53.584;9.938;2024-03-23T04:08:35;5.50;1.00
3023;DHT22;1521;53.584;9.938;2024-03-23T04:11:01;5.60;1.00
3023;DHT22;1521;53.584;9.938;2024-03-23T04:13:26;5.50;1.00
3023;DHT22;1521;53.584;9.938;2024-03-23T04:15:55;5.50;1.00
3023;DHT22;1521;53.584;9.938;2024-03-23T04:18:21;5.60;1.00
3023;DHT22;1521;53.584;9.938;2024-03-23T04:20:48;5.60;1.00
3023;DHT22;1521;53.584;9.938;2024-03-23T04:23:13;5.60;1.00
3023;DHT22;1521;53.584;9.938;2024-03-23T04:25:39;5.60;1.00
3023;DHT22;1521;53.584;9.938;2024-03-23T04:28:04;5.50;1.00
3023;DHT22;1521;53.584;9.938;2024-03-23T04:30:30;5.50;1.00
3023;DHT22;1521;53.584;9.938;2024-03-23T04:32:57;5.50;1.00
3023;DHT22;1521;53.584;9.938;2024-03-23T04:35:24;5.40;1.00
3023;DHT22;1521;53.584;9.938;2024-03-23T04:37:51;5.40;1.00
3023;DHT22;1521;53.584;9.938;2024-03-23T04:40:17;5.50;1.00
3023;DHT22;1521;53.584;9.938;2024-03-23T04:42:43;5.50;1.00
3023;DHT22;1521;53.584;9.938;2024-03-23T04:45:09;5.50;10.10
3023;DHT22;1521;53.584;9.938;2024-03-23T04:47:36;5.50;1.00
3023;DHT22;1521;53.584;9.938;2024-03-23T04:50:02;5.50;1.00
3023;DHT22;1521;53.584;9.938;2024-03-23T04:52:29;5.50;1.00
3023;DHT22;1521;53.584;9.938;2024-03-23T04:54:54;5.60;1.00
3023;DHT22;1521;53.584;9.938;2024-03-23T04:57:20;5.60;1.00
3023;DHT22;1521;53.584;9.938;2024-03-23T04:59:45;5.60;1.00
3023;DHT22;1521;53.584;9.938;2024-03-23T05:02:12;5.50;1.00
3023;DHT22;1521;53.584;9.938;2024-03-23T05:04:38;5.50;1.00
3023;DHT22;1521;53.584;9.938;2024-03-23T05:07:03;5.50;1.00
3023;DHT22;1521;53.584;9.938;2024-03-23T05:09:30;5.40;1.00
3023;DHT22;1521;53.584;9.938;2024-03-23T05:11:56;5.40;1.00
3023;DHT22;1521;53.584;9.938;2024-03-23T05:14:22;5.40;1.00
3023;DHT22;1521;53.584;9.938;2024-03-23T05:16:47;5.40;1.00
3023;DHT22;1521;53.584;9.938;2024-03-23T05:19:13;5.50;1.00
3023;DHT22;1521;53.584;9.938;2024-03-23T05:21:38;5.50;1.00
3023;DHT22;1521;53.584;9.938;2024-03-23T05:24:05;5.50;1.00
3023;DHT22;1521;53.584;9.938;2024-03-23T05:26:30;5.60;1.00
3023;DHT22;1521;53.584;9.938;2024-03-23T05:28:56;5.50;1.00
3023;DHT22;1521;53.584;9.938;2024-03-23T05:31:29;5.60;1.00
3023;DHT22;1521;53.584;9.938;2024-03-23T05:33:55;5.50;1.00
3023;DHT22;1521;53.584;9.938;2024-03-23T05:36:21;5.60;1.00
3023;DHT22;1521;53.584;9.938;2024-03-23T05:38:47;5.50;1.00
3023;DHT22;1521;53.584;9.938;2024-03-23T05:41:13;5.50;1.00
3023;DHT22;1521;53.584;9.938;2024-03-23T05:43:38;5.60;1.00
3023;DHT22;1521;53.584;9.938;2024-03-23T05:46:04;5.60;99.90
3023;DHT22;1521;53.584;9.938;2024-03-23T05:48:34;5.60;99.90
3023;DHT22;1521;53.584;9.938;2024-03-23T05:50:59;5.60;99.90
3023;DHT22;1521;53.584;9.938;2024-03-23T05:53:25;5.50;36.80
3023;DHT22;1521;53.584;9.938;2024-03-23T05:55:51;5.50;10.70
3023;DHT22;1521;53.584;9.938;2024-03-23T05:58:25;5.60;99.90
3023;DHT22;1521;53.584;9.938;2024-03-23T06:01:00;5.50;6.70
3023;DHT22;1521;53.584;9.938;2024-03-23T06:03:27;5.50;1.00
3023;DHT22;1521;53.584;9.938;2024-03-23T06:05:53;5.50;1.00
3023;DHT22;1521;53.584;9.938;2024-03-23T06:08:19;5.60;12.50
3023;DHT22;1521;53.584;9.938;2024-03-23T06:10:45;5.60;1.00
3023;DHT22;1521;53.584;9.938;2024-03-23T06:13:11;5.60;1.00
3023;DHT22;1521;53.584;9.938;2024-03-23T06:15:37;5.60;1.00
3023;DHT22;1521;53.584;9.938;2024-03-23T06:18:03;5.70;1.00
3023;DHT22;1521;53.584;9.938;2024-03-23T06:20:30;5.70;99.90
3023;DHT22;1521;53.584;9.938;2024-03-23T06:22:55;5.70;1.00
3023;DHT22;1521;53.584;9.938;2024-03-23T06:25:21;5.80;1.00
3023;DHT22;1521;53.584;9.938;2024-03-23T06:27:46;5.90;99.90
3023;DHT22;1521;53.584;9.938;2024-03-23T06:30:12;5.90;99.90
3023;DHT22;1521;53.584;9.938;2024-03-23T06:32:38;6.00;99.90
3023;DHT22;1521;53.584;9.938;2024-03-23T06:35:03;6.10;99.90
3023;DHT22;1521;53.584;9.938;2024-03-23T06:37:34;6.10;1.00
3023;DHT22;1521;53.584;9.938;2024-03-23T06:39:59;6.20;99.90
3023;DHT22;1521;53.584;9.938;2024-03-23T06:42:25;6.30;1.00
3023;DHT22;1521;53.584;9.938;2024-03-23T06:44:50;6.30;99.90
3023;DHT22;1521;53.584;9.938;2024-03-23T06:47:16;6.40;99.90
3023;DHT22;1521;53.584;9.938;2024-03-23T06:49:42;6.40;1.00
3023;DHT22;1521;53.584;9.938;2024-03-23T06:52:07;6.40;99.90
3023;DHT22;1521;53.584;9.938;2024-03-23T06:54:33;6.40;1.00
3023;DHT22;1521;53.584;9.938;2024-03-23T06:56:59;6.40;33.80
3023;DHT22;1521;53.584;9.938;2024-03-23T06:59:24;6.40;1.00
3023;DHT22;1521;53.584;9.938;2024-03-23T07:01:50;6.40;99.90
3023;DHT22;1521;53.584;9.938;2024-03-23T07:04:15;6.40;21.60
3023;DHT22;1521;53.584;9.938;2024-03-23T07:06:44;6.40;99.90
3023;DHT22;1521;53.584;9.938;2024-03-23T07:09:10;6.30;99.90
3023;DHT22;1521;53.584;9.938;2024-03-23T07:11:36;6.40;1.00
3023;DHT22;1521;53.584;9.938;2024-03-23T07:14:02;6.50;99.90
3023;DHT22;1521;53.584;9.938;2024-03-23T07:16:28;6.70;1.00
3023;DHT22;1521;53.584;9.938;2024-03-23T07:18:54;6.90;1.00
3023;DHT22;1521;53.584;9.938;2024-03-23T07:21:19;7.10;99.90
3023;DHT22;1521;53.584;9.938;2024-03-23T07:23:45;7.30;99.90
3023;DHT22;1521;53.584;9.938;2024-03-23T07:26:10;7.50;99.90
3023;DHT22;1521;53.584;9.938;2024-03-23T07:28:36;7.60;99.90
3023;DHT22;1521;53.584;9.938;2024-03-23T07:31:12;7.70;99.90
3023;DHT22;1521;53.584;9.938;2024-03-23T07:33:42;7.90;99.90
3023;DHT22;1521;53.584;9.938;2024-03-23T07:36:08;8.00;99.90
3023;DHT22;1521;53.584;9.938;2024-03-23T07:38:34;8.00;99.90
3023;DHT22;1521;53.584;9.938;2024-03-23T07:41:15;8.20;99.90
3023;DHT22;1521;53.584;9.938;2024-03-23T07:43:42;8.20;84.50
3023;DHT22;1521;53.584;9.938;2024-03-23T07:46:08;8.60;85.00
3023;DHT22;1521;53.584;9.938;2024-03-23T07:48:33;9.10;40.00
3023;DHT22;1521;53.584;9.938;2024-03-23T07:51:04;9.80;1.00
3023;DHT22;1521;53.584;9.938;2024-03-23T07:53:30;10.40;1.00
3023;DHT22;1521;53.584;9.938;2024-03-23T07:56:06;11.00;1.00
3023;DHT22;1521;53.584;9.938;2024-03-23T07:58:33;11.30;1.00
3023;DHT22;1521;53.584;9.938;2024-03-23T08:01:11;11.50;1.00
3023;DHT22;1521;53.584;9.938;2024-03-23T08:03:39;11.80;1.00
3023;DHT22;1521;53.584;9.938;2024-03-23T08:08:34;12.30;1.00
3023;DHT22;1521;53.584;9.938;2024-03-23T08:11:00;12.40;1.00
3023;DHT22;1521;53.584;9.938;2024-03-23T08:13:26;12.70;1.00
3023;DHT22;1521;53.584;9.938;2024-03-23T08:15:52;13.10;1.00
3023;DHT22;1521;53.584;9.938;2024-03-23T08:18:17;13.30;1.00
3023;DHT22;1521;53.584;9.938;2024-03-23T08:20:43;13.50;1.00
3023;DHT22;1521;53.584;9.938;2024-03-23T08:23:08;13.90;1.00
3023;DHT22;1521;53.584;9.938;2024-03-23T08:25:34;14.00;1.00
3023;DHT22;1521;53.584;9.938;2024-03-23T08:28:00;13.50;1.00
3023;DHT22;1521;53.584;9.938;2024-03-23T08:30:26;12.80;1.00
3023;DHT22;1521;53.584;9.938;2024-03-23T08:32:52;12.70;1.00
3023;DHT22;1521;53.584;9.938;2024-03-23T08:35:17;12.80;1.00
3023;DHT22;1521;53.584;9.938;2024-03-23T08:37:43;12.40;1.00
3023;DHT22;1521;53.584;9.938;2024-03-23T08:40:09;11.90;1.00
3023;DHT22;1521;53.584;9.938;2024-03-23T08:42:35;11.70;1.00
3023;DHT22;1521;53.584;9.938;2024-03-23T08:45:00;11.60;1.00
3023;DHT22;1521;53.584;9.938;2024-03-23T08:47:26;12.00;1.00
3023;DHT22;1521;53.584;9.938;2024-03-23T08:49:51;12.60;1.00
3023;DHT22;1521;53.584;9.938;2024-03-23T08:52:17;13.00;1.00
3023;DHT22;1521;53.584;9.938;2024-03-23T08:54:43;13.20;1.00
3023;DHT22;1521;53.584;9.938;2024-03-23T08:57:08;12.80;1.00
3023;DHT22;1521;53.584;9.938;2024-03-23T09:06:47;12.70;1.00
3023;DHT22;1521;53.584;9.938;2024-03-23T09:09:13;12.80;1.00
3023;DHT22;1521;53.584;9.938;2024-03-23T09:11:39;12.90;1.00
3023;DHT22;1521;53.584;9.938;2024-03-23T09:14:04;13.20;1.00
3023;DHT22;1521;53.584;9.938;2024-03-23T09:16:30;13.00;1.00
3023;DHT22;1521;53.584;9.938;2024-03-23T09:18:55;12.80;1.00
3023;DHT22;1521;53.584;9.938;2024-03-23T09:21:21;12.40;1.00
3023;DHT22;1521;53.584;9.938;2024-03-23T09:23:46;11.80;1.00
3023;DHT22;1521;53.584;9.938;2024-03-23T09:26:12;11.50;1.00
3023;DHT22;1521;53.584;9.938;2024-03-23T09:28:38;10.80;1.00
3023;DHT22;1521;53.584;9.938;2024-03-23T09:31:05;10.40;1.00
3023;DHT22;1521;53.584;9.938;2024-03-23T09:33:30;10.20;1.00
3023;DHT22;1521;53.584;9.938;2024-03-23T09:35:56;10.70;1.00
3023;DHT22;1521;53.584;9.938;2024-03-23T09:38:22;10.90;1.00
3023;DHT22;1521;53.584;9.938;2024-03-23T09:40:52;10.80;1.00
3023;DHT22;1521;53.584;9.938;2024-03-23T09:43:18;10.50;1.00
3023;DHT22;1521;53.584;9.938;2024-03-23T09:45:45;10.40;1.00
3023;DHT22;1521;53.584;9.938;2024-03-23T09:48:11;10.50;1.00
3023;DHT22;1521;53.584;9.938;2024-03-23T09:50:41;10.90;1.00
3023;DHT22;1521;53.584;9.938;2024-03-23T09:53:07;11.60;1.00
3023;DHT22;1521;53.584;9.938;2024-03-23T09:55:33;11.60;1.00
3023;DHT22;1521;53.584;9.938;2024-03-23T09:58:01;11.30;1.00
3023;DHT22;1521;53.584;9.938;2024-03-23T10:00:26;11.00;1.00
3023;DHT22;1521;53.584;9.938;2024-03-23T10:02:52;10.50;1.00
3023;DHT22;1521;53.584;9.938;2024-03-23T10:05:23;10.20;1.00
3023;DHT22;1521;53.584;9.938;2024-03-23T10:07:51;10.00;1.00
3023;DHT22;1521;53.584;9.938;2024-03-23T10:10:17;9.70;1.00
3023;DHT22;1521;53.584;9.938;2024-03-23T10:12:47;9.90;1.00
3023;DHT22;1521;53.584;9.938;2024-03-23T10:15:23;10.30;1.00
3023;DHT22;1521;53.584;9.938;2024-03-23T10:25:49;11.10;1.00
3023;DHT22;1521;53.584;9.938;2024-03-23T10:28:15;10.70;1.00
3023;DHT22;1521;53.584;9.938;2024-03-23T10:30:40;10.30;1.00
3023;DHT22;1521;53.584;9.938;2024-03-23T10:33:12;9.90;1.00
3023;DHT22;1521;53.584;9.938;2024-03-23T10:35:39;9.70;1.00
3023;DHT22;1521;53.584;9.938;2024-03-23T10:38:05;9.50;1.00
3023;DHT22;1521;53.584;9.938;2024-03-23T10:40:36;9.30;1.00
3023;DHT22;1521;53.584;9.938;2024-03-23T10:43:03;9.20;1.00
3023;DHT22;1521;53.584;9.938;2024-03-23T10:45:30;9.20;1.00
3023;DHT22;1521;53.584;9.938;2024-03-23T10:47:55;9.40;1.00
3023;DHT22;1521;53.584;9.938;2024-03-23T10:50:21;10.20;1.00
3023;DHT22;1521;53.584;9.938;2024-03-23T10:52:47;10.90;1.00
3023;DHT22;1521;53.584;9.938;2024-03-23T10:55:16;11.00;1.00
3023;DHT22;1521;53.584;9.938;2024-03-23T10:57:48;10.90;1.00
3023;DHT22;1521;53.584;9.938;2024-03-23T11:00:15;10.70;1.00
3023;DHT22;1521;53.584;9.938;2024-03-23T11:02:41;11.10;1.00
3023;DHT22;1521;53.584;9.938;2024-03-23T11:05:30;11.50;1.00
3023;DHT22;1521;53.584;9.938;2024-03-23T11:07:56;12.70;1.00
3023;DHT22;1521;53.584;9.938;2024-03-23T11:10:28;13.70;1.00
3023;DHT22;1521;53.584;9.938;2024-03-23T11:12:58;13.60;1.00
3023;DHT22;1521;53.584;9.938;2024-03-23T11:15:43;13.40;1.00
3023;DHT22;1521;53.584;9.938;2024-03-23T11:18:09;13.60;1.00
3023;DHT22;1521;53.584;9.938;2024-03-23T11:20:35;13.90;1.00
3023;DHT22;1521;53.584;9.938;2024-03-23T11:23:01;13.60;1.00
3023;DHT22;1521;53.584;9.938;2024-03-23T11:25:28;13.60;1.00
3023;DHT22;1521;53.584;9.938;2024-03-23T11:28:10;13.70;1.00
3023;DHT22;1521;53.584;9.938;2024-03-23T11:30:37;14.30;1.00
3023;DHT22;1521;53.584;9.938;2024-03-23T11:33:04;15.30;1.00
3023;DHT22;1521;53.584;9.938;2024-03-23T11:35:37;15.80;1.00
3023;DHT22;1521;53.584;9.938;2024-03-23T11:40:40;16.20;1.00
3023;DHT22;1521;53.584;9.938;2024-03-23T11:43:17;16.70;1.00
3023;DHT22;1521;53.584;9.938;2024-03-23T11:45:47;17.00;1.00
3023;DHT22;1521;53.584;9.938;2024-03-23T11:48:15;15.60;1.00
3023;DHT22;1521;53.584;9.938;2024-03-23T11:50:44;14.90;1.00
3023;DHT22;1521;53.584;9.938;2024-03-23T11:56:00;14.00;1.00
3023;DHT22;1521;53.584;9.938;2024-03-23T11:58:27;13.20;1.00
3023;DHT22;1521;53.584;9.938;2024-03-23T12:01:00;12.30;1.00
3023;DHT22;1521;53.584;9.938;2024-03-23T12:03:28;10.90;1.00
3023;DHT22;1521;53.584;9.938;2024-03-23T12:05:55;9.80;1.00
3023;DHT22;1521;53.584;9.938;2024-03-23T12:08:31;9.00;1.00
3023;DHT22;1521;53.584;9.938;2024-03-23T12:11:11;8.00;1.00
3023;DHT22;1521;53.584;9.938;2024-03-23T12:13:38;7.70;1.00
3023;DHT22;1521;53.584;9.938;2024-03-23T12:16:10;7.90;1.00
3023;DHT22;1521;53.584;9.938;2024-03-23T12:18:37;8.00;1.00
3023;DHT22;1521;53.584;9.938;2024-03-23T12:21:04;7.80;1.00
3023;DHT22;1521;53.584;9.938;2024-03-23T12:23:29;8.20;1.00
3023;DHT22;1521;53.584;9.938;2024-03-23T12:25:55;8.90;1.00
3023;DHT22;1521;53.584;9.938;2024-03-23T12:28:20;10.20;1.00
3023;DHT22;1521;53.584;9.938;2024-03-23T12:30:46;11.50;1.00
3023;DHT22;1521;53.584;9.938;2024-03-23T12:33:11;11.70;1.00
3023;DHT22;1521;53.584;9.938;2024-03-23T12:35:37;11.00;1.00
3023;DHT22;1521;53.584;9.938;2024-03-23T12:38:02;10.20;1.00
3023;DHT22;1521;53.584;9.938;2024-03-23T12:40:28;9.00;1.00
3023;DHT22;1521;53.584;9.938;2024-03-23T12:42:54;8.00;1.00
3023;DHT22;1521;53.584;9.938;2024-03-23T12:45:21;7.30;1.00
3023;DHT22;1521;53.584;9.938;2024-03-23T12:47:47;6.80;1.00
3023;DHT22;1521;53.584;9.938;2024-03-23T12:50:12;6.50;1.00
3023;DHT22;1521;53.584;9.938;2024-03-23T12:52:38;6.30;1.00
3023;DHT22;1521;53.584;9.938;2024-03-23T12:55:04;6.20;1.00
3023;DHT22;1521;53.584;9.938;2024-03-23T12:57:32;5.90;1.00
3023;DHT22;1521;53.584;9.938;2024-03-23T12:59:58;5.70;1.00
3023;DHT22;1521;53.584;9.938;2024-03-23T13:02:24;5.60;1.00
3023;DHT22;1521;53.584;9.938;2024-03-23T13:04:51;5.60;1.00
3023;DHT22;1521;53.584;9.938;2024-03-23T13:07:21;5.80;1.00
3023;DHT22;1521;53.584;9.938;2024-03-23T13:09:49;6.00;1.00
3023;DHT22;1521;53.584;9.938;2024-03-23T13:12:15;6.30;1.00
3023;DHT22;1521;53.584;9.938;2024-03-23T13:14:40;6.60;1.00
3023;DHT22;1521;53.584;9.938;2024-03-23T13:17:06;6.70;1.00
3023;DHT22;1521;53.584;9.938;2024-03-23T13:19:33;6.80;1.00
3023;DHT22;1521;53.584;9.938;2024-03-23T13:21:59;6.90;1.00
3023;DHT22;1521;53.584;9.938;2024-03-23T13:24:28;7.00;1.00
3023;DHT22;1521;53.584;9.938;2024-03-23T13:26:55;7.00;1.00
3023;DHT22;1521;53.584;9.938;2024-03-23T13:29:21;7.00;1.00
3023;DHT22;1521;53.584;9.938;2024-03-23T13:31:48;7.00;1.00
3023;DHT22;1521;53.584;9.938;2024-03-23T13:34:14;7.00;1.00
3023;DHT22;1521;53.584;9.938;2024-03-23T13:36:44;7.80;1.00
3023;DHT22;1521;53.584;9.938;2024-03-23T13:39:09;9.20;1.00
3023;DHT22;1521;53.584;9.938;2024-03-23T13:41:44;10.00;1.00
3023;DHT22;1521;53.584;9.938;2024-03-23T13:44:11;10.90;1.00
3023;DHT22;1521;53.584;9.938;2024-03-23T13:46:37;11.10;1.00
3023;DHT22;1521;53.584;9.938;2024-03-23T13:49:03;11.10;1.00
3023;DHT22;1521;53.584;9.938;2024-03-23T13:51:29;10.90;1.00
3023;DHT22;1521;53.584;9.938;2024-03-23T13:53:55;10.70;1.00
3023;DHT22;1521;53.584;9.938;2024-03-23T13:56:25;10.60;1.00
3023;DHT22;1521;53.584;9.938;2024-03-23T13:58:50;10.40;1.00
3023;DHT22;1521;53.584;9.938;2024-03-23T14:01:16;10.10;1.00
3023;DHT22;1521;53.584;9.938;2024-03-23T14:03:42;10.00;1.00
3023;DHT22;1521;53.584;9.938;2024-03-23T14:06:09;9.90;1.00
3023;DHT22;1521;53.584;9.938;2024-03-23T14:08:35;10.10;1.00
3023;DHT22;1521;53.584;9.938;2024-03-23T14:11:04;11.00;1.00
3023;DHT22;1521;53.584;9.938;2024-03-23T14:13:30;10.10;1.00
3023;DHT22;1521;53.584;9.938;2024-03-23T14:15:56;10.50;1.00
3023;DHT22;1521;53.584;9.938;2024-03-23T14:18:21;11.20;1.00
3023;DHT22;1521;53.584;9.938;2024-03-23T14:20:49;11.50;1.00
3023;DHT22;1521;53.584;9.938;2024-03-23T14:23:14;11.20;1.00
3023;DHT22;1521;53.584;9.938;2024-03-23T14:25:40;10.90;1.00
3023;DHT22;1521;53.584;9.938;2024-03-23T14:28:06;10.90;1.00
3023;DHT22;1521;53.584;9.938;2024-03-23T14:30:31;11.40;1.00
3023;DHT22;1521;53.584;9.938;2024-03-23T14:32:57;11.90;1.00
3023;DHT22;1521;53.584;9.938;2024-03-23T14:35:22;12.30;1.00
3023;DHT22;1521;53.584;9.938;2024-03-23T14:37:49;12.00;1.00
3023;DHT22;1521;53.584;9.938;2024-03-23T14:40:14;11.80;1.00
3023;DHT22;1521;53.584;9.938;2024-03-23T14:42:40;11.80;1.00
3023;DHT22;1521;53.584;9.938;2024-03-23T14:45:07;11.80;1.00
3023;DHT22;1521;53.584;9.938;2024-03-23T14:47:32;11.10;1.00
3023;DHT22;1521;53.584;9.938;2024-03-23T14:49:58;10.20;1.00
3023;DHT22;1521;53.584;9.938;2024-03-23T14:52:24;9.50;1.00
3023;DHT22;1521;53.584;9.938;2024-03-23T14:54:49;9.00;1.00
3023;DHT22;1521;53.584;9.938;2024-03-23T14:57:15;8.60;1.00
3023;DHT22;1521;53.584;9.938;2024-03-23T14:59:40;8.40;1.00
3023;DHT22;1521;53.584;9.938;2024-03-23T15:02:09;8.20;1.00
3023;DHT22;1521;53.584;9.938;2024-03-23T15:04:35;8.00;1.00
3023;DHT22;1521;53.584;9.938;2024-03-23T15:07:01;7.80;1.00
3023;DHT22;1521;53.584;9.938;2024-03-23T15:09:27;7.60;1.00
3023;DHT22;1521;53.584;9.938;2024-03-23T15:11:53;7.30;1.00
3023;DHT22;1521;53.584;9.938;2024-03-23T15:14:20;7.30;1.00
3023;DHT22;1521;53.584;9.938;2024-03-23T15:16:46;7.30;1.00
3023;DHT22;1521;53.584;9.938;2024-03-23T15:19:14;7.60;1.00
3023;DHT22;1521;53.584;9.938;2024-03-23T15:21:40;8.10;1.00
3023;DHT22;1521;53.584;9.938;2024-03-23T15:24:05;8.40;1.00
3023;DHT22;1521;53.584;9.938;2024-03-23T15:26:31;8.60;1.00
3023;DHT22;1521;53.584;9.938;2024-03-23T15:28:58;8.60;1.00
3023;DHT22;1521;53.584;9.938;2024-03-23T15:31:23;8.50;1.00
3023;DHT22;1521;53.584;9.938;2024-03-23T15:33:49;8.50;1.00
3023;DHT22;1521;53.584;9.938;2024-03-23T15:36:15;8.40;1.00
3023;DHT22;1521;53.584;9.938;2024-03-23T15:38:40;8.20;1.00
3023;DHT22;1521;53.584;9.938;2024-03-23T15:41:06;8.00;1.00
3023;DHT22;1521;53.584;9.938;2024-03-23T15:43:33;7.90;1.00
3023;DHT22;1521;53.584;9.938;2024-03-23T15:46:00;7.80;1.00
3023;DHT22;1521;53.584;9.938;2024-03-23T15:48:26;7.70;1.00
3023;DHT22;1521;53.584;9.938;2024-03-23T15:51:03;7.70;1.00
3023;DHT22;1521;53.584;9.938;2024-03-23T15:53:32;7.60;1.00
3023;DHT22;1521;53.584;9.938;2024-03-23T15:55:59;7.70;1.00
3023;DHT22;1521;53.584;9.938;2024-03-23T15:58:26;7.80;1.00
3023;DHT22;1521;53.584;9.938;2024-03-23T16:01:06;7.90;1.00
3023;DHT22;1521;53.584;9.938;2024-03-23T16:03:32;7.90;1.00
3023;DHT22;1521;53.584;9.938;2024-03-23T16:06:00;7.80;1.00
3023;DHT22;1521;53.584;9.938;2024-03-23T16:08:26;7.80;1.00
3023;DHT22;1521;53.584;9.938;2024-03-23T16:10:53;7.70;1.00
3023;DHT22;1521;53.584;9.938;2024-03-23T16:13:19;7.70;1.00
3023;DHT22;1521;53.584;9.938;2024-03-23T16:15:45;7.60;1.00
3023;DHT22;1521;53.584;9.938;2024-03-23T16:18:11;7.60;1.00
3023;DHT22;1521;53.584;9.938;2024-03-23T16:20:36;7.60;1.00
3023;DHT22;1521;53.584;9.938;2024-03-23T16:23:03;7.50;1.00
3023;DHT22;1521;53.584;9.938;2024-03-23T16:25:29;7.50;1.00
3023;DHT22;1521;53.584;9.938;2024-03-23T16:27:55;7.60;1.00
3023;DHT22;1521;53.584;9.938;2024-03-23T16:30:21;7.60;1.00
3023;DHT22;1521;53.584;9.938;2024-03-23T16:32:47;7.60;1.00
3023;DHT22;1521;53.584;9.938;2024-03-23T16:35:13;7.60;1.00
3023;DHT22;1521;53.584;9.938;2024-03-23T16:37:39;7.60;1.00
3023;DHT22;1521;53.584;9.938;2024-03-23T16:40:05;7.50;1.00
3023;DHT22;1521;53.584;9.938;2024-03-23T16:42:32;7.50;1.00
3023;DHT22;1521;53.584;9.938;2024-03-23T16:44:57;7.30;1.00
3023;DHT22;1521;53.584;9.938;2024-03-23T16:47:23;7.10;1.00
3023;DHT22;1521;53.584;9.938;2024-03-23T16:49:49;7.00;1.00
3023;DHT22;1521;53.584;9.938;2024-03-23T16:52:14;6.80;1.00
3023;DHT22;1521;53.584;9.938;2024-03-23T16:54:41;6.50;1.00
3023;DHT22;1521;53.584;9.938;2024-03-23T16:57:07;6.50;1.00
3023;DHT22;1521;53.584;9.938;2024-03-23T16:59:32;6.50;1.00
3023;DHT22;1521;53.584;9.938;2024-03-23T17:01:58;6.50;1.00
3023;DHT22;1521;53.584;9.938;2024-03-23T17:04:23;6.50;1.00
3023;DHT22;1521;53.584;9.938;2024-03-23T17:06:49;6.60;1.00
3023;DHT22;1521;53.584;9.938;2024-03-23T17:09:14;6.50;1.00
3023;DHT22;1521;53.584;9.938;2024-03-23T17:11:41;6.50;1.00
3023;DHT22;1521;53.584;9.938;2024-03-23T17:14:12;6.60;1.00
3023;DHT22;1521;53.584;9.938;2024-03-23T17:16:38;6.50;1.00
3023;DHT22;1521;53.584;9.938;2024-03-23T17:19:03;6.60;1.00
3023;DHT22;1521;53.584;9.938;2024-03-23T17:21:29;6.60;1.00
3023;DHT22;1521;53.584;9.938;2024-03-23T17:23:54;6.60;1.00
3023;DHT22;1521;53.584;9.938;2024-03-23T17:26:26;6.50;1.00
3023;DHT22;1521;53.584;9.938;2024-03-23T17:28:52;6.50;1.00
3023;DHT22;1521;53.584;9.938;2024-03-23T17:31:18;6.50;1.00
3023;DHT22;1521;53.584;9.938;2024-03-23T17:33:44;6.40;1.00
3023;DHT22;1521;53.584;9.938;2024-03-23T17:36:10;6.40;1.00
3023;DHT22;1521;53.584;9.938;2024-03-23T17:38:36;6.30;1.00